Time;durP1;ratioP1;P1;durP2;ratioP2;P2;SDS_P1;SDS_P2;PMS_P1;PMS_P2;Temp;Humidity;BMP_temperature;BMP_pressure;BME280_temperature;BME280_humidity;BME280_pressure;Samples;Min_cycle;Max_cycle;Signal;HPM_P1;HPM_P2
2021/05/27 00:00:12;;;;;;;16.00;5.88;;;;;;;9.87;96.86;101376.59;5111833;28;20113;-53
2021/05/27 00:02:40;;;;;;;19.33;6.57;;;;;;;9.83;96.83;101379.13;5099815;28;20059;-53
2021/05/27 00:05:10;;;;;;;20.25;6.38;;;;;;;9.83;97.08;101375.50;5111106;28;20044;-57
2021/05/27 00:07:38;;;;;;;23.73;6.50;;;;;;;9.83;97.16;101381.91;5111656;28;20500;-52
2021/05/27 00:10:08;;;;;;;18.15;6.03;;;;;;;9.83;97.21;101379.13;5111365;28;20058;-58
2021/05/27 00:12:36;;;;;;;19.55;6.00;;;;;;;9.85;97.17;101385.25;5111136;28;20134;-56
2021/05/27 00:15:05;;;;;;;23.08;7.03;;;;;;;9.86;97.17;101388.88;5111147;28;20576;-57
2021/05/27 00:17:32;;;;;;;20.02;5.85;;;;;;;9.85;97.43;101390.81;5111608;28;20090;-56
2021/05/27 00:20:01;;;;;;;21.08;5.80;;;;;;;9.86;97.21;101389.72;5110946;28;20053;-56
2021/05/27 00:22:29;;;;;;;16.30;6.20;;;;;;;9.87;97.38;101387.75;5111525;28;20047;-55
2021/05/27 00:24:56;;;;;;;26.92;7.05;;;;;;;9.88;97.36;101395.84;5111414;28;20180;-59
2021/05/27 00:27:29;;;;;;;22.30;6.82;;;;;;;9.89;97.35;101397.50;5111246;28;20068;-57
2021/05/27 00:29:56;;;;;;;16.35;5.72;;;;;;;9.89;97.38;101399.47;5111195;28;20039;-56
2021/05/27 00:32:23;;;;;;;25.05;6.80;;;;;;;9.87;97.27;101396.97;5111663;28;20134;-58
2021/05/27 00:34:51;;;;;;;20.85;6.75;;;;;;;9.87;97.33;101399.75;5110746;28;20074;-57
2021/05/27 00:37:18;;;;;;;19.17;6.03;;;;;;;9.86;97.50;101395.28;5111223;28;20073;-58
2021/05/27 00:39:46;;;;;;;21.95;6.43;;;;;;;9.86;97.47;101398.06;5110782;28;20408;-58
2021/05/27 00:42:14;;;;;;;23.60;6.80;;;;;;;9.86;97.58;101412.00;5111534;28;20078;-57
2021/05/27 00:44:42;;;;;;;22.55;6.47;;;;;;;9.86;97.63;101411.19;5111151;28;20094;-56
2021/05/27 00:47:11;;;;;;;21.60;6.55;;;;;;;9.87;97.53;101407.28;5109658;28;20052;-57
2021/05/27 00:49:40;;;;;;;22.60;6.00;;;;;;;9.85;97.60;101404.75;5109251;28;20051;-55
2021/05/27 00:52:08;;;;;;;28.75;7.60;;;;;;;9.86;97.65;101412.00;5111453;28;20043;-59
2021/05/27 00:54:35;;;;;;;24.58;7.25;;;;;;;9.87;97.68;101413.69;5109226;28;20043;-57
2021/05/27 00:57:07;;;;;;;18.08;6.55;;;;;;;9.84;97.69;101408.66;5111168;28;20393;-59
2021/05/27 00:59:35;;;;;;;20.70;6.90;;;;;;;9.81;97.58;101411.19;5098411;28;20047;-56
2021/05/27 01:02:02;;;;;;;21.13;6.07;;;;;;;9.79;97.72;101411.44;5110629;28;20047;-59
2021/05/27 01:04:30;;;;;;;22.48;6.47;;;;;;;9.80;97.72;101415.06;5111265;28;20052;-58
2021/05/27 01:07:02;;;;;;;16.90;6.40;;;;;;;9.77;97.78;101415.66;5111048;28;20047;-56
2021/05/27 01:09:29;;;;;;;23.65;6.53;;;;;;;9.78;97.86;101415.38;5109084;28;20128;-56
2021/05/27 01:11:57;;;;;;;21.42;6.82;;;;;;;9.80;98.13;101410.34;5110835;28;20071;-56
2021/05/27 01:17:08;;;;;;;25.58;6.90;;;;;;;9.79;98.20;101419.81;5110633;28;20044;-55
2021/05/27 01:19:36;;;;;;;25.80;6.50;;;;;;;9.80;98.15;101418.69;5113061;28;20077;-54
2021/05/27 01:22:04;;;;;;;26.15;6.78;;;;;;;9.81;98.05;101417.59;5114116;28;20063;-53
2021/05/27 01:24:35;;;;;;;24.75;6.50;;;;;;;9.80;98.09;101417.88;5113462;28;20043;-52
2021/05/27 01:27:03;;;;;;;18.40;6.63;;;;;;;9.78;98.27;101420.13;5102359;28;20040;-55
2021/05/27 01:29:30;;;;;;;25.23;7.30;;;;;;;9.77;98.13;101427.66;5113996;28;20039;-51
2021/05/27 01:31:59;;;;;;;21.73;7.00;;;;;;;9.78;98.16;101425.69;5114262;28;20123;-55
2021/05/27 01:34:27;;;;;;;25.20;7.30;;;;;;;9.77;98.00;101429.59;5113420;28;20048;-55
2021/05/27 01:36:54;;;;;;;24.25;7.13;;;;;;;9.76;98.25;101434.34;5112448;28;20405;-53
2021/05/27 01:39:23;;;;;;;29.73;7.32;;;;;;;9.76;98.22;101434.34;5114240;28;20051;-54
2021/05/27 01:41:52;;;;;;;22.75;6.75;;;;;;;9.75;98.11;101432.66;5112797;28;20446;-55
2021/05/27 01:44:20;;;;;;;21.50;7.10;;;;;;;9.74;98.22;101436.56;5113841;28;20054;-54
2021/05/27 01:46:49;;;;;;;22.58;7.93;;;;;;;9.72;98.13;101438.78;5114163;28;20047;-53
2021/05/27 01:49:17;;;;;;;19.25;6.72;;;;;;;9.70;98.30;101435.44;5113165;28;20048;-54
2021/05/27 01:51:49;;;;;;;23.67;6.88;;;;;;;9.70;98.29;101441.00;5113306;28;20052;-54
2021/05/27 01:54:18;;;;;;;17.98;6.38;;;;;;;9.70;98.38;101435.44;5112348;28;20428;-56
2021/05/27 01:56:46;;;;;;;24.15;6.70;;;;;;;9.69;98.41;101444.91;5114097;28;20052;-54
2021/05/27 01:59:14;;;;;;;20.30;6.82;;;;;;;9.67;98.41;101445.19;5112098;28;20071;-51
2021/05/27 02:01:44;;;;;;;25.90;6.97;;;;;;;9.70;98.46;101451.31;5114004;28;20590;-54
2021/05/27 02:04:11;;;;;;;24.20;6.82;;;;;;;9.72;98.63;101446.31;5113288;28;20488;-54
2021/05/27 02:06:39;;;;;;;26.73;7.28;;;;;;;9.73;98.68;101434.06;5113794;28;20044;-55
2021/05/27 02:09:10;;;;;;;25.85;7.15;;;;;;;9.72;98.56;101443.53;5113754;28;20052;-52
2021/05/27 02:12:08;;;;;;;19.63;6.30;;;;;;;9.70;98.71;101442.97;5096058;28;20051;-52
2021/05/27 02:14:37;;;;;;;18.70;6.45;;;;;;;9.71;98.67;101439.06;5113864;28;20730;-56
2021/05/27 02:17:04;;;;;;;23.42;6.65;;;;;;;9.72;98.72;101449.94;5099985;28;20039;-57
2021/05/27 02:19:32;;;;;;;30.23;7.40;;;;;;;9.74;98.80;101449.66;5111708;28;20134;-55
2021/05/27 02:22:00;;;;;;;24.73;7.00;;;;;;;9.72;98.79;101444.38;5113685;28;20048;-50
2021/05/27 02:24:50;;;;;;;23.40;6.57;;;;;;;9.71;98.85;101451.06;5113316;28;20051;-50
2021/05/27 02:27:20;;;;;;;27.75;7.05;;;;;;;9.72;98.77;101449.94;5112650;28;20067;-53
2021/05/27 02:29:49;;;;;;;23.02;6.57;;;;;;;9.74;98.77;101453.28;5112491;28;20134;-51
2021/05/27 02:32:18;;;;;;;20.20;6.03;;;;;;;9.74;98.75;101453.28;5111141;28;20504;-54
2021/05/27 02:34:48;;;;;;;22.77;6.03;;;;;;;9.74;98.78;101458.03;5105349;28;20482;-56
2021/05/27 02:37:16;;;;;;;22.33;6.57;;;;;;;9.72;98.69;101454.69;5112060;28;20046;-49
2021/05/27 02:39:48;;;;;;;25.50;6.80;;;;;;;9.70;98.68;101454.13;5111365;28;20504;-54
2021/05/27 02:42:21;;;;;;;20.17;6.05;;;;;;;9.65;98.78;101457.72;5112939;28;20065;-53
2021/05/27 02:44:52;;;;;;;21.35;6.50;;;;;;;9.63;98.86;101454.38;5113235;28;20044;-51
2021/05/27 02:47:20;;;;;;;23.67;6.82;;;;;;;9.62;98.85;101463.84;5112416;28;20160;-51
2021/05/27 02:49:47;;;;;;;23.88;7.18;;;;;;;9.61;98.94;101460.22;5111572;28;20420;-53
2021/05/27 02:52:18;;;;;;;20.30;7.07;;;;;;;9.63;98.89;101460.78;5111827;28;20059;-54
2021/05/27 02:54:45;;;;;;;23.70;7.28;;;;;;;9.65;99.01;101454.94;5111737;28;20385;-53
2021/05/27 02:57:13;;;;;;;21.77;6.65;;;;;;;9.64;98.82;101464.41;5113125;28;20060;-50
2021/05/27 02:59:45;;;;;;;18.05;6.15;;;;;;;9.64;98.99;101464.41;5111374;28;20489;-53
2021/05/27 03:02:15;;;;;;;22.60;6.95;;;;;;;9.64;98.96;101459.69;5110946;28;20551;-55
2021/05/27 03:04:42;;;;;;;23.45;6.32;;;;;;;9.65;99.01;101460.53;5111305;28;20083;-51
2021/05/27 03:07:14;;;;;;;25.60;6.78;;;;;;;9.63;99.08;101457.16;5112505;28;20044;-54
2021/05/27 03:09:42;;;;;;;22.67;7.10;;;;;;;9.65;99.01;101471.66;5111198;28;20043;-50
2021/05/27 03:12:10;;;;;;;19.50;6.60;;;;;;;9.65;99.06;101471.66;5109126;28;20035;-54
2021/05/27 03:14:42;;;;;;;16.35;5.60;;;;;;;9.62;98.97;101461.91;5112057;28;20074;-50
2021/05/27 03:17:15;;;;;;;;;;;;;;;9.53;98.88;101466.38;5111851;28;20051;-54
2021/05/27 03:19:43;;;;;;;19.48;6.40;;;;;;;9.52;99.60;101464.69;5111131;28;19919;-52
2021/05/27 03:22:11;;;;;;;20.33;5.72;;;;;;;9.57;99.38;101477.81;5110724;28;20055;-57
2021/05/27 03:24:40;;;;;;;16.35;5.85;;;;;;;9.57;99.21;101480.59;5111045;28;20051;-56
2021/05/27 03:27:09;;;;;;;24.35;6.93;;;;;;;9.57;99.38;101483.38;5111984;28;20052;-54
2021/05/27 03:29:37;;;;;;;22.27;5.43;;;;;;;9.58;99.34;101471.97;5111603;28;20131;-50
2021/05/27 03:32:05;;;;;;;21.33;5.38;;;;;;;9.59;99.54;101478.38;5110607;28;20059;-52
2021/05/27 03:34:34;;;;;;;17.08;5.50;;;;;;;9.58;99.26;101476.69;5111685;27;20051;-49
2021/05/27 03:37:04;;;;;;;19.00;5.97;;;;;;;9.57;99.21;101475.03;5109939;28;20045;-54
2021/05/27 03:39:33;;;;;;;16.98;6.18;;;;;;;9.56;99.28;101474.19;5110353;28;20045;-55
2021/05/27 03:42:02;;;;;;;18.15;5.57;;;;;;;9.56;99.09;101476.13;5110227;28;20059;-51
2021/05/27 03:44:32;;;;;;;18.67;5.60;;;;;;;9.58;99.23;101471.13;5109316;28;20077;-53
2021/05/27 03:47:00;;;;;;;20.50;5.85;;;;;;;9.60;99.26;101471.66;5110683;28;20492;-53
2021/05/27 03:49:28;;;;;;;23.10;5.40;;;;;;;9.59;99.31;101472.78;5109435;28;20043;-54
2021/05/27 03:51:56;;;;;;;21.45;5.88;;;;;;;9.59;99.33;101478.38;5110427;28;20043;-52
2021/05/27 03:54:25;;;;;;;18.40;5.75;;;;;;;9.57;99.34;101461.94;5111931;28;20082;-51
2021/05/27 03:56:52;;;;;;;17.25;5.65;;;;;;;9.55;99.19;101466.94;5110976;28;20039;-52
2021/05/27 04:02:14;;;;;;;16.42;4.65;;;;;;;9.50;99.36;101477.22;5108185;28;20122;-54
2021/05/27 04:07:47;;;;;;;18.00;5.22;;;;;;;9.47;99.38;101481.41;5111347;28;20492;-52
2021/05/27 04:10:14;;;;;;;15.68;5.35;;;;;;;9.49;99.50;101483.91;5111432;28;20130;-52
2021/05/27 04:12:45;;;;;;;18.30;5.10;;;;;;;9.50;99.61;101474.44;5110819;28;20071;-50
2021/05/27 04:15:22;;;;;;;19.17;5.55;;;;;;;9.52;99.40;101477.78;5111609;28;20044;-53
2021/05/27 04:17:55;;;;;;;15.57;5.10;;;;;;;9.51;99.38;101476.13;5110887;28;20063;-52
2021/05/27 04:20:22;;;;;;;;;;;;;;;9.44;99.39;101472.75;5112153;28;20056;-53
2021/05/27 04:22:51;;;;;;;16.85;4.85;;;;;;;9.43;99.67;101485.00;5111334;28;19973;-53
2021/05/27 04:25:20;;;;;;;17.08;5.40;;;;;;;9.48;99.72;101476.66;5110868;28;20044;-51
2021/05/27 04:27:47;;;;;;;24.70;5.60;;;;;;;9.49;99.64;101483.91;5111150;28;20047;-56
2021/05/27 04:30:17;;;;;;;20.88;5.30;;;;;;;9.50;99.59;101486.44;5111468;28;20044;-56
2021/05/27 04:32:55;;;;;;;19.50;5.88;;;;;;;9.51;99.45;101482.53;5110468;28;20063;-56
2021/05/27 04:35:34;;;;;;;23.08;7.72;;;;;;;9.51;99.55;101476.13;5111716;28;20050;-53
2021/05/27 04:38:05;;;;;;;18.33;5.93;;;;;;;9.52;99.56;101483.38;5111079;28;20048;-50
2021/05/27 04:40:33;;;;;;;24.83;6.10;;;;;;;9.52;99.52;101488.94;5099516;28;20089;-53
2021/05/27 04:43:01;;;;;;;19.33;6.07;;;;;;;9.51;99.47;101493.69;5110815;28;20480;-55
2021/05/27 04:45:29;;;;;;;29.33;7.55;;;;;;;9.52;99.47;101491.72;5111893;28;20036;-54
2021/05/27 04:47:57;;;;;;;22.02;7.20;;;;;;;9.51;99.59;101479.75;5110624;28;20143;-54
2021/05/27 04:50:25;;;;;;;16.90;5.55;;;;;;;9.53;99.54;101485.03;5110828;28;20485;-53
2021/05/27 04:52:53;;;;;;;17.65;5.55;;;;;;;9.53;99.55;101491.44;5110855;28;20120;-56
2021/05/27 04:55:21;;;;;;;22.42;5.97;;;;;;;9.54;99.54;101498.69;5114619;28;20106;-53
2021/05/27 04:57:49;;;;;;;20.80;6.57;;;;;;;9.56;99.57;101501.22;5114739;28;20063;-54
2021/05/27 05:00:20;;;;;;;27.27;6.32;;;;;;;9.54;99.52;101498.69;5114628;28;20404;-59
2021/05/27 05:02:50;;;;;;;21.90;6.00;;;;;;;9.54;99.51;101498.69;5115091;28;20048;-55
2021/05/27 05:05:18;;;;;;;17.40;5.72;;;;;;;9.56;99.66;101501.22;5114915;28;20052;-55
2021/05/27 05:07:48;;;;;;;26.02;6.45;;;;;;;9.57;99.70;101502.88;5102085;28;20409;-49
2021/05/27 05:10:18;;;;;;;20.80;6.40;;;;;;;9.57;99.63;101503.72;5114322;28;20052;-56
2021/05/27 05:12:47;;;;;;;31.90;7.30;;;;;;;9.56;99.65;101515.13;5114991;28;20496;-59
2021/05/27 05:15:16;;;;;;;17.30;5.78;;;;;;;9.56;99.57;101507.63;5114206;28;20154;-55
2021/05/27 05:17:48;;;;;;;23.98;6.43;;;;;;;9.58;99.72;101510.97;5114868;28;20043;-55
2021/05/27 05:20:16;;;;;;;28.20;6.95;;;;;;;9.60;99.59;101507.88;5108595;28;20071;-58
2021/05/27 05:22:44;;;;;;;23.88;6.88;;;;;;;9.63;99.82;101512.91;5113888;28;20113;-54
2021/05/27 05:25:12;;;;;;;28.60;8.35;;;;;;;9.65;99.75;101514.31;5114661;28;20046;-51
2021/05/27 05:27:39;;;;;;;21.70;6.88;;;;;;;9.68;99.62;101519.31;5114574;28;20047;-50
2021/05/27 05:30:10;;;;;;;25.63;7.05;;;;;;;9.71;99.68;101519.88;5113702;28;20454;-56
2021/05/27 05:32:38;;;;;;;30.20;7.60;;;;;;;9.72;99.87;101516.81;5113143;28;20047;-58
2021/05/27 05:35:07;;;;;;;31.67;7.78;;;;;;;9.75;99.66;101519.06;5112383;28;20040;-58
2021/05/27 05:37:35;;;;;;;26.42;7.13;;;;;;;9.78;99.63;101526.03;5114787;28;20047;-59
2021/05/27 05:40:04;;;;;;;23.35;7.28;;;;;;;9.78;99.51;101520.47;5113500;28;20531;-56
2021/05/27 05:42:32;;;;;;;29.98;7.30;;;;;;;9.75;99.53;101526.59;5113810;28;20496;-59
2021/05/27 05:44:59;;;;;;;30.95;7.90;;;;;;;9.75;99.68;101521.84;5113456;28;20051;-57
2021/05/27 05:47:28;;;;;;;38.65;8.85;;;;;;;9.77;99.56;101530.78;5113825;28;20040;-56
2021/05/27 05:49:55;;;;;;;26.85;7.63;;;;;;;9.76;99.46;101528.25;5113103;28;20051;-56
2021/05/27 05:52:23;;;;;;;34.17;7.75;;;;;;;9.75;99.55;101524.63;5113458;28;20071;-55
2021/05/27 05:54:51;;;;;;;27.08;7.15;;;;;;;9.78;99.54;101534.41;5113738;28;20131;-57
2021/05/27 05:57:19;;;;;;;31.55;7.93;;;;;;;9.79;99.57;101536.88;5112828;28;20086;-58
2021/05/27 05:59:46;;;;;;;30.23;8.10;;;;;;;9.80;99.63;101541.34;5113843;28;20048;-53
2021/05/27 06:02:15;;;;;;;23.90;7.30;;;;;;;9.81;99.67;101537.44;5111178;28;20427;-58
2021/05/27 06:04:43;;;;;;;34.50;8.10;;;;;;;9.78;99.51;101537.19;5111664;28;20055;-58
2021/05/27 06:07:21;;;;;;;27.90;7.20;;;;;;;9.78;99.66;101543.59;5111762;28;20047;-55
2021/05/27 06:09:49;;;;;;;29.15;7.07;;;;;;;9.77;99.58;101552.22;5113520;28;20420;-56
2021/05/27 06:12:16;;;;;;;23.92;6.55;;;;;;;9.77;99.60;101561.44;5113145;28;20047;-56
2021/05/27 06:14:44;;;;;;;21.45;6.15;;;;;;;9.76;99.41;101551.41;5112485;28;20346;-57
2021/05/27 06:17:11;;;;;;;25.83;6.63;;;;;;;9.76;99.42;101558.91;5113137;28;20092;-56
2021/05/27 06:19:39;;;;;;;25.05;6.68;;;;;;;9.74;99.46;101563.94;5111520;28;20043;-57
2021/05/27 06:22:16;;;;;;;23.17;6.18;;;;;;;9.72;99.23;101564.19;5112253;28;20047;-58
2021/05/27 06:24:48;;;;;;;30.05;6.68;;;;;;;9.74;99.17;101572.28;5111307;28;20052;-58
2021/05/27 06:27:15;;;;;;;25.55;6.00;;;;;;;9.75;99.39;101576.75;5112636;28;20097;-57
2021/05/27 06:29:43;;;;;;;22.80;6.68;;;;;;;9.76;99.21;101570.91;5113427;28;20122;-59
2021/05/27 06:32:10;;;;;;;21.75;5.38;;;;;;;9.76;99.20;101584.84;5112556;28;20530;-56
2021/05/27 06:34:37;;;;;;;26.95;6.35;;;;;;;9.78;99.22;101579.84;5112935;28;20112;-56
2021/05/27 06:37:05;;;;;;;25.13;6.05;;;;;;;9.79;99.17;101587.03;5111589;28;20032;-56
2021/05/27 06:39:33;;;;;;;22.67;6.28;;;;;;;9.80;99.16;101587.88;5101280;28;20071;-54
2021/05/27 06:42:01;;;;;;;21.45;6.10;;;;;;;9.80;99.04;101591.50;5112507;28;20576;-56
2021/05/27 06:44:28;;;;;;;21.85;5.95;;;;;;;9.78;98.94;101587.34;5110963;28;20212;-57
2021/05/27 06:46:56;;;;;;;26.33;6.18;;;;;;;9.78;98.93;101592.94;5111401;28;20150;-57
2021/05/27 06:49:24;;;;;;;22.13;6.70;;;;;;;9.80;98.99;101599.03;5111149;28;20070;-56
2021/05/27 06:51:55;;;;;;;22.45;6.15;;;;;;;9.82;99.00;101589.28;5112483;28;20086;-54
2021/05/27 06:54:23;;;;;;;27.83;6.90;;;;;;;9.83;98.95;101590.97;5111482;28;20352;-59
2021/05/27 06:56:52;;;;;;;21.83;6.63;;;;;;;9.86;98.81;101592.38;5112682;28;20123;-57
2021/05/27 06:59:20;;;;;;;24.23;6.30;;;;;;;9.89;98.89;101591.81;5112189;28;20051;-57
2021/05/27 07:01:47;;;;;;;25.40;6.47;;;;;;;9.90;98.87;101594.31;5112547;28;20048;-59
2021/05/27 07:04:15;;;;;;;34.08;6.15;;;;;;;9.91;98.74;101597.97;5112558;28;20500;-56
2021/05/27 07:06:42;;;;;;;25.58;7.20;;;;;;;9.92;98.82;101600.47;5111512;28;20047;-57
2021/05/27 07:09:11;;;;;;;25.30;6.32;;;;;;;9.95;98.66;101604.66;5112714;28;20075;-56
2021/05/27 07:11:38;;;;;;;26.25;5.95;;;;;;;9.95;98.79;101610.22;5112397;28;20382;-58
2021/05/27 07:14:06;;;;;;;28.27;6.95;;;;;;;9.97;98.66;101616.38;5111637;28;20055;-56
2021/05/27 07:16:34;;;;;;;24.35;6.15;;;;;;;9.95;98.74;101616.66;5111780;28;20070;-57
2021/05/27 07:19:02;;;;;;;34.38;7.70;;;;;;;9.93;98.61;101630.03;5112000;28;20032;-52
2021/05/27 07:21:30;;;;;;;24.17;6.80;;;;;;;9.91;98.62;101621.09;5111452;28;20056;-55
2021/05/27 07:23:57;;;;;;;26.88;7.00;;;;;;;9.91;98.75;101626.66;5108905;28;20051;-56
2021/05/27 07:26:25;;;;;;;20.15;6.30;;;;;;;9.91;98.88;101626.66;5112454;28;20066;-53
2021/05/27 07:28:52;;;;;;;29.17;7.18;;;;;;;9.93;98.89;101631.97;5111098;28;20469;-57
2021/05/27 07:31:20;;;;;;;35.17;8.18;;;;;;;9.94;98.93;101630.84;5112229;28;20051;-57
2021/05/27 07:33:48;;;;;;;31.73;8.23;;;;;;;9.95;98.91;101632.53;5111699;28;20043;-54
2021/05/27 07:36:15;;;;;;;35.95;7.85;;;;;;;9.96;99.06;101625.84;5111649;28;20057;-57
2021/05/27 07:38:47;;;;;;;32.63;7.90;;;;;;;9.99;99.11;101631.69;5110624;28;20519;-55
2021/05/27 07:41:14;;;;;;;31.05;7.60;;;;;;;10.01;99.24;101621.09;5112413;28;20162;-53
2021/05/27 07:43:41;;;;;;;37.10;8.60;;;;;;;10.04;99.21;101636.44;5110822;28;20493;-57
2021/05/27 07:46:09;;;;;;;33.90;7.55;;;;;;;10.06;99.30;101639.78;5110698;28;20079;-53
2021/05/27 07:48:37;;;;;;;29.75;7.13;;;;;;;10.09;99.35;101647.59;5110999;28;20043;-54
2021/05/27 07:51:05;;;;;;;36.30;7.53;;;;;;;10.10;99.23;101634.50;5111140;28;20055;-50
2021/05/27 07:53:33;;;;;;;36.55;8.57;;;;;;;10.12;99.34;101649.00;5111272;28;20051;-53
2021/05/27 07:56:01;;;;;;;31.00;7.32;;;;;;;10.12;99.39;101641.47;5111232;28;20138;-53
2021/05/27 07:58:29;;;;;;;29.70;6.85;;;;;;;10.12;99.37;101651.78;5099331;28;20051;-52
2021/05/27 08:00:57;;;;;;;32.88;6.80;;;;;;;10.10;99.48;101657.66;5111605;28;20133;-55
2021/05/27 08:03:25;;;;;;;32.15;6.88;;;;;;;10.10;99.48;101656.81;5111168;28;20048;-54
2021/05/27 08:05:53;;;;;;;41.10;7.63;;;;;;;10.10;99.57;101648.44;5111290;28;20035;-51
2021/05/27 08:08:20;;;;;;;34.47;7.43;;;;;;;10.13;99.59;101656.25;5111333;28;20047;-59
2021/05/27 08:10:48;;;;;;;34.60;7.20;;;;;;;10.14;99.69;101653.19;5110563;28;20555;-52
2021/05/27 08:13:15;;;;;;;35.38;7.28;;;;;;;10.18;99.82;101661.84;5110870;28;20048;-54
2021/05/27 08:15:46;;;;;;;39.90;7.35;;;;;;;10.22;99.95;101654.63;5111880;28;20461;-55
2021/05/27 08:18:13;;;;;;;40.85;7.68;;;;;;;10.23;99.82;101653.50;5111016;28;20078;-55
2021/05/27 08:20:40;;;;;;;26.80;6.25;;;;;;;10.25;99.74;101659.66;5109644;28;20044;-55
2021/05/27 08:23:09;;;;;;;29.02;6.10;;;;;;;10.29;99.78;101664.41;5111497;28;20489;-52
2021/05/27 08:25:42;;;;;;;32.17;5.97;;;;;;;10.34;99.82;101661.63;5110566;28;20047;-50
2021/05/27 08:28:10;;;;;;;23.20;5.18;;;;;;;10.42;99.89;101659.38;5099719;28;20075;-56
2021/05/27 08:30:37;;;;;;;21.40;4.70;;;;;;;10.50;99.82;101670.81;5115301;28;20052;-55
2021/05/27 08:33:05;;;;;;;22.90;4.50;;;;;;;10.60;99.79;101672.75;5115055;28;20040;-56
2021/05/27 08:35:33;;;;;;;22.55;3.80;;;;;;;10.70;99.63;101681.97;5114787;28;20047;-57
2021/05/27 08:38:00;;;;;;;17.60;3.22;;;;;;;10.75;99.12;101681.16;5114926;28;20464;-56
2021/05/27 08:40:29;;;;;;;13.80;2.70;;;;;;;10.70;98.51;101673.59;5115183;28;20089;-54
2021/05/27 08:42:58;;;;;;;14.57;2.85;;;;;;;10.68;97.95;101680.59;5115251;28;20075;-59
2021/05/27 08:45:28;;;;;;;13.07;2.90;;;;;;;10.68;97.96;101678.63;5114782;28;20059;-56
2021/05/27 08:47:56;;;;;;;15.57;2.88;;;;;;;10.76;97.90;101685.63;5115474;28;20756;-58
2021/05/27 08:50:30;;;;;;;19.13;2.78;;;;;;;10.85;98.00;101686.72;5114716;28;20059;-58
2021/05/27 08:52:58;;;;;;;13.73;2.63;;;;;;;10.98;98.00;101696.47;5114500;28;20078;-56
2021/05/27 08:55:26;;;;;;;13.55;2.47;;;;;;;11.04;97.37;101695.34;5115189;28;20073;-59
2021/05/27 08:57:54;;;;;;;12.98;2.72;;;;;;;11.09;96.90;101698.13;5114983;28;20563;-49
2021/05/27 09:00:22;;;;;;;17.05;2.83;;;;;;;11.18;96.98;101695.59;5114415;28;20043;-58
2021/05/27 09:02:54;;;;;;;12.57;2.90;;;;;;;11.23;96.48;101699.22;5114522;28;20052;-56
2021/05/27 09:05:23;;;;;;;18.27;2.92;;;;;;;11.20;96.04;101696.13;5114676;28;20071;-56
2021/05/27 09:07:51;;;;;;;18.25;2.90;;;;;;;11.17;95.99;101707.91;5105673;28;20100;-56
2021/05/27 09:10:18;;;;;;;16.15;2.85;;;;;;;11.17;96.07;101711.53;5113334;28;20134;-53
2021/05/27 09:12:45;;;;;;;13.25;2.60;;;;;;;11.24;96.30;101717.66;5114612;28;20046;-57
2021/05/27 09:15:23;;;;;;;12.02;2.35;;;;;;;11.46;96.57;101717.31;5113994;28;20152;-59
2021/05/27 09:17:52;;;;;;;15.63;2.25;;;;;;;11.69;96.77;101725.06;5111488;28;20036;-56
2021/05/27 09:20:22;;;;;;;13.10;2.70;;;;;;;11.85;95.84;101728.66;5113981;28;20105;-58
2021/05/27 09:23:14;;;;;;;12.50;2.45;;;;;;;11.99;95.01;101729.69;5114166;28;20051;-54
2021/05/27 09:25:43;;;;;;;14.25;2.70;;;;;;;12.04;93.98;101732.47;5114233;28;20051;-55
2021/05/27 09:28:11;;;;;;;15.10;2.33;;;;;;;12.11;93.39;101726.56;5112408;28;20100;-53
2021/05/27 09:30:45;;;;;;;12.77;2.28;;;;;;;12.18;93.12;101740.25;5114252;28;20373;-53
2021/05/27 09:33:14;;;;;;;12.02;2.22;;;;;;;12.29;93.08;101745.50;5113457;28;20039;-55
2021/05/27 09:35:42;;;;;;;14.57;3.00;;;;;;;12.50;93.23;101751.78;5113638;28;20501;-56
2021/05/27 09:38:11;;;;;;;12.98;2.08;;;;;;;12.72;92.75;101755.00;5113987;28;20074;-53
2021/05/27 09:40:42;;;;;;;15.57;2.42;;;;;;;12.83;91.83;101749.28;5113472;28;20093;-55
2021/05/27 09:43:11;;;;;;;14.82;2.75;;;;;;;12.80;90.73;101761.91;5113494;27;20105;-53
2021/05/27 09:45:40;;;;;;;11.95;2.38;;;;;;;12.75;90.24;101771.22;5114172;28;20446;-52
2021/05/27 09:48:20;;;;;;;10.27;2.10;;;;;;;12.66;89.79;101755.31;5112496;28;20048;-54
2021/05/27 09:50:48;;;;;;;10.73;2.05;;;;;;;12.61;89.28;101766.53;5113981;28;20052;-52
2021/05/27 09:53:19;;;;;;;12.15;1.83;;;;;;;12.65;89.48;101768.47;5113815;28;20062;-52
2021/05/27 09:55:47;;;;;;;13.15;2.47;;;;;;;12.76;89.35;101772.91;5111897;28;20043;-49
2021/05/27 09:58:16;;;;;;;13.93;2.67;;;;;;;12.85;88.59;101777.84;5113646;28;20098;-51
2021/05/27 10:00:45;;;;;;;14.52;2.63;;;;;;;12.79;87.25;101774.25;5113973;28;20052;-50
2021/05/27 10:03:32;;;;;;;12.98;2.17;;;;;;;12.84;87.21;101776.19;5112839;28;20078;-56
2021/05/27 10:06:01;;;;;;;10.18;2.38;;;;;;;12.85;86.45;101773.09;5110118;28;20465;-47
2021/05/27 10:08:30;;;;;;;11.95;2.25;;;;;;;12.83;86.20;101780.09;5113838;28;20168;-48
2021/05/27 10:11:06;;;;;;;10.75;2.08;;;;;;;12.84;86.51;101784.59;5112386;28;20557;-51
2021/05/27 10:13:35;;;;;;;9.70;2.38;;;;;;;12.79;86.04;101793.84;5113622;28;20065;-48
2021/05/27 10:16:02;;;;;;;12.43;2.17;;;;;;;12.74;86.08;101797.56;5113309;28;20055;-51
2021/05/27 10:18:31;;;;;;;10.68;1.88;;;;;;;12.71;85.25;101798.13;5112357;28;20117;-51
2021/05/27 10:21:02;;;;;;;13.43;2.20;;;;;;;12.69;85.08;101811.59;5113239;28;20052;-54
2021/05/27 10:23:30;;;;;;;12.23;2.70;;;;;;;12.69;84.92;101817.19;5112981;28;20036;-52
2021/05/27 10:25:57;;;;;;;12.68;2.30;;;;;;;12.66;84.94;101806.56;5112854;27;20522;-53
2021/05/27 10:28:25;;;;;;;10.75;2.42;;;;;;;12.65;84.82;101813.28;5113104;28;20093;-49
2021/05/27 10:30:54;;;;;;;11.65;2.50;;;;;;;12.73;85.05;101811.84;5112371;28;20067;-47
2021/05/27 10:33:21;;;;;;;16.20;2.58;;;;;;;12.81;84.85;101819.63;5112626;28;20043;-48
2021/05/27 10:35:53;;;;;;;14.98;2.20;;;;;;;12.79;84.09;101824.66;5113262;28;20062;-53
2021/05/27 10:39:00;;;;;;;9.57;1.98;;;;;;;12.78;84.02;101825.81;5111082;28;20043;-51
2021/05/27 10:41:53;;;;;;;11.30;2.30;;;;;;;12.88;84.34;101825.72;5106757;28;20055;-55
2021/05/27 10:44:21;;;;;;;9.48;2.08;;;;;;;13.00;84.07;101833.75;5103837;28;20047;-54
2021/05/27 10:47:12;;;;;;;15.15;2.30;;;;;;;13.06;82.83;101839.03;5111988;28;20040;-51
2021/05/27 10:49:58;;;;;;;10.70;2.03;;;;;;;13.02;82.89;101845.50;5107986;28;20420;-58
2021/05/27 10:52:41;;;;;;;9.88;2.20;;;;;;;12.98;83.00;101844.44;5110837;28;20151;-51
2021/05/27 10:55:52;;;;;;;13.30;2.30;;;;;;;12.96;82.71;101839.13;5112309;28;20130;-51
2021/05/27 10:58:19;;;;;;;11.55;2.17;;;;;;;12.92;83.03;101854.00;5103048;28;20043;-54
2021/05/27 11:00:49;;;;;;;7.38;1.83;;;;;;;12.91;82.69;101852.34;5111832;28;20052;-51
2021/05/27 11:03:42;;;;;;;10.88;1.92;;;;;;;13.00;82.91;101858.97;5112637;28;20097;-53
2021/05/27 11:06:24;;;;;;;16.08;2.50;;;;;;;13.01;82.08;101861.50;5111460;28;20097;-56
2021/05/27 11:09:33;;;;;;;11.55;2.00;;;;;;;13.00;81.87;101862.63;5112825;28;20075;-52
2021/05/27 11:12:22;;;;;;;10.60;2.10;;;;;;;13.03;81.83;101872.41;5112314;28;20117;-49
2021/05/27 11:15:17;;;;;;;10.65;2.10;;;;;;;12.98;81.17;101869.66;5111640;28;20062;-54
2021/05/27 11:18:01;;;;;;;8.82;2.00;;;;;;;12.94;81.67;101875.00;5064679;28;20105;-51
2021/05/27 11:20:30;;;;;;;10.07;2.03;;;;;;;12.87;81.64;101882.88;5102798;28;20074;-52
2021/05/27 11:23:10;;;;;;;10.55;1.83;;;;;;;12.83;81.76;101892.16;5112016;28;20051;-57
2021/05/27 11:25:40;;;;;;;10.60;2.08;;;;;;;12.80;82.29;101884.31;5112026;28;20583;-54
2021/05/27 11:28:34;;;;;;;8.60;1.70;;;;;;;12.77;81.98;101889.41;5111541;28;20039;-55
2021/05/27 11:31:03;;;;;;;9.48;1.90;;;;;;;12.73;82.04;101893.91;5112073;28;20055;-52
2021/05/27 11:33:43;;;;;;;12.75;2.28;;;;;;;12.74;81.97;101900.34;5111684;27;20079;-58
2021/05/27 11:36:22;;;;;;;10.18;1.92;;;;;;;12.76;81.83;101893.34;5112256;28;20117;-53
2021/05/27 11:38:50;;;;;;;9.35;2.15;;;;;;;12.77;81.63;101903.41;5111949;28;20039;-54
2021/05/27 11:41:19;;;;;;;9.15;2.10;;;;;;;12.84;81.58;101903.06;5111215;28;20036;-56
2021/05/27 11:43:54;;;;;;;9.10;1.95;;;;;;;12.91;81.41;101902.75;5111783;28;20075;-59
2021/05/27 11:46:23;;;;;;;9.20;2.10;;;;;;;12.96;80.68;101914.78;5111992;28;20074;-54